sensor_id;sensor_type;location;lat;lon;timestamp;temperature;humidity
8715;DHT22;4394;51.208;8.904;2023-02-21T00:02:53;8.60;99.90
8715;DHT22;4394;51.208;8.904;2023-02-21T00:05:58;8.70;99.90
8715;DHT22;4394;51.208;8.904;2023-02-21T00:09:05;8.70;99.90
8715;DHT22;4394;51.208;8.904;2023-02-21T00:12:10;8.70;99.90
8715;DHT22;4394;51.208;8.904;2023-02-21T00:15:16;8.70;99.90
8715;DHT22;4394;51.208;8.904;2023-02-21T00:18:21;8.80;99.90
8715;DHT22;4394;51.208;8.904;2023-02-21T00:21:27;8.80;99.90
8715;DHT22;4394;51.208;8.904;2023-02-21T00:24:34;8.80;99.90
8715;DHT22;4394;51.208;8.904;2023-02-21T00:27:40;8.80;99.90
8715;DHT22;4394;51.208;8.904;2023-02-21T00:30:46;8.80;99.90
8715;DHT22;4394;51.208;8.904;2023-02-21T00:33:51;8.80;99.90
8715;DHT22;4394;51.208;8.904;2023-02-21T00:36:57;8.80;99.90
8715;DHT22;4394;51.208;8.904;2023-02-21T00:40:04;8.80;99.90
8715;DHT22;4394;51.208;8.904;2023-02-21T00:43:09;8.80;99.90
8715;DHT22;4394;51.208;8.904;2023-02-21T00:46:15;8.80;99.90
8715;DHT22;4394;51.208;8.904;2023-02-21T00:49:20;8.90;99.90
8715;DHT22;4394;51.208;8.904;2023-02-21T00:52:26;8.90;99.90
8715;DHT22;4394;51.208;8.904;2023-02-21T00:55:33;8.90;99.90
8715;DHT22;4394;51.208;8.904;2023-02-21T00:58:38;8.80;99.90
8715;DHT22;4394;51.208;8.904;2023-02-21T01:01:43;8.80;99.90
8715;DHT22;4394;51.208;8.904;2023-02-21T01:04:49;8.80;99.90
8715;DHT22;4394;51.208;8.904;2023-02-21T01:07:54;8.80;99.90
8715;DHT22;4394;51.208;8.904;2023-02-21T01:11:00;8.80;99.90
8715;DHT22;4394;51.208;8.904;2023-02-21T01:14:06;8.80;99.90
8715;DHT22;4394;51.208;8.904;2023-02-21T01:17:14;8.80;99.90
8715;DHT22;4394;51.208;8.904;2023-02-21T01:20:19;8.80;99.90
8715;DHT22;4394;51.208;8.904;2023-02-21T01:23:24;8.80;99.90
8715;DHT22;4394;51.208;8.904;2023-02-21T01:26:31;8.80;99.90
8715;DHT22;4394;51.208;8.904;2023-02-21T01:29:36;8.80;99.90
8715;DHT22;4394;51.208;8.904;2023-02-21T01:32:42;8.80;99.90
8715;DHT22;4394;51.208;8.904;2023-02-21T01:35:47;8.80;99.90
8715;DHT22;4394;51.208;8.904;2023-02-21T01:38:52;8.80;99.90
8715;DHT22;4394;51.208;8.904;2023-02-21T01:41:59;8.80;99.90
8715;DHT22;4394;51.208;8.904;2023-02-21T01:45:31;8.80;99.90
8715;DHT22;4394;51.208;8.904;2023-02-21T01:48:37;8.80;99.90
8715;DHT22;4394;51.208;8.904;2023-02-21T01:51:43;8.80;99.90
8715;DHT22;4394;51.208;8.904;2023-02-21T01:54:52;8.70;99.90
8715;DHT22;4394;51.208;8.904;2023-02-21T01:58:00;8.70;99.90
8715;DHT22;4394;51.208;8.904;2023-02-21T02:01:07;8.70;99.90
8715;DHT22;4394;51.208;8.904;2023-02-21T02:04:14;8.70;99.90
8715;DHT22;4394;51.208;8.904;2023-02-21T02:07:20;8.60;99.90
8715;DHT22;4394;51.208;8.904;2023-02-21T02:10:26;8.60;99.90
8715;DHT22;4394;51.208;8.904;2023-02-21T02:13:50;8.60;99.90
8715;DHT22;4394;51.208;8.904;2023-02-21T02:16:45;8.60;99.90
8715;DHT22;4394;51.208;8.904;2023-02-21T02:19:50;8.60;99.90
8715;DHT22;4394;51.208;8.904;2023-02-21T02:23:04;8.70;99.90
8715;DHT22;4394;51.208;8.904;2023-02-21T02:26:12;8.60;99.90
8715;DHT22;4394;51.208;8.904;2023-02-21T02:29:25;8.60;99.90
8715;DHT22;4394;51.208;8.904;2023-02-21T02:32:36;8.70;99.90
8715;DHT22;4394;51.208;8.904;2023-02-21T02:35:28;8.70;99.90
8715;DHT22;4394;51.208;8.904;2023-02-21T02:38:23;8.70;99.90
8715;DHT22;4394;51.208;8.904;2023-02-21T02:41:18;8.70;99.90
8715;DHT22;4394;51.208;8.904;2023-02-21T02:44:13;8.70;99.90
8715;DHT22;4394;51.208;8.904;2023-02-21T02:47:04;8.70;99.90
8715;DHT22;4394;51.208;8.904;2023-02-21T02:49:54;8.70;99.90
8715;DHT22;4394;51.208;8.904;2023-02-21T02:52:52;8.70;99.90
8715;DHT22;4394;51.208;8.904;2023-02-21T02:55:46;8.70;99.90
8715;DHT22;4394;51.208;8.904;2023-02-21T02:58:39;8.70;99.90
8715;DHT22;4394;51.208;8.904;2023-02-21T03:01:43;8.70;99.90
8715;DHT22;4394;51.208;8.904;2023-02-21T03:04:58;8.70;99.90
8715;DHT22;4394;51.208;8.904;2023-02-21T03:07:56;8.80;99.90
8715;DHT22;4394;51.208;8.904;2023-02-21T03:10:49;8.80;99.90
8715;DHT22;4394;51.208;8.904;2023-02-21T03:13:42;8.80;99.90
8715;DHT22;4394;51.208;8.904;2023-02-21T03:16:34;8.80;99.90
8715;DHT22;4394;51.208;8.904;2023-02-21T03:19:28;8.80;99.90
8715;DHT22;4394;51.208;8.904;2023-02-21T03:22:20;8.70;99.90
8715;DHT22;4394;51.208;8.904;2023-02-21T03:25:10;8.70;99.90
8715;DHT22;4394;51.208;8.904;2023-02-21T03:28:01;8.70;99.90
8715;DHT22;4394;51.208;8.904;2023-02-21T03:30:52;8.70;99.90
8715;DHT22;4394;51.208;8.904;2023-02-21T03:33:41;8.70;99.90
8715;DHT22;4394;51.208;8.904;2023-02-21T03:36:29;8.70;99.90
8715;DHT22;4394;51.208;8.904;2023-02-21T03:39:17;8.70;99.90
8715;DHT22;4394;51.208;8.904;2023-02-21T03:42:06;8.70;99.90
8715;DHT22;4394;51.208;8.904;2023-02-21T03:44:54;8.70;99.90
8715;DHT22;4394;51.208;8.904;2023-02-21T03:47:42;8.60;99.90
8715;DHT22;4394;51.208;8.904;2023-02-21T03:50:30;8.70;99.90
8715;DHT22;4394;51.208;8.904;2023-02-21T03:53:18;8.70;99.90
8715;DHT22;4394;51.208;8.904;2023-02-21T03:56:06;8.60;99.90
8715;DHT22;4394;51.208;8.904;2023-02-21T03:58:55;8.70;99.90
8715;DHT22;4394;51.208;8.904;2023-02-21T04:01:43;8.60;99.90
8715;DHT22;4394;51.208;8.904;2023-02-21T04:04:31;8.60;99.90
8715;DHT22;4394;51.208;8.904;2023-02-21T04:07:20;8.60;99.90
8715;DHT22;4394;51.208;8.904;2023-02-21T04:10:08;8.60;99.90
8715;DHT22;4394;51.208;8.904;2023-02-21T04:12:55;8.60;99.90
8715;DHT22;4394;51.208;8.904;2023-02-21T04:15:45;8.60;99.90
8715;DHT22;4394;51.208;8.904;2023-02-21T04:18:33;8.60;99.90
8715;DHT22;4394;51.208;8.904;2023-02-21T04:21:23;8.60;99.90
8715;DHT22;4394;51.208;8.904;2023-02-21T04:24:11;8.60;99.90
8715;DHT22;4394;51.208;8.904;2023-02-21T04:26:59;8.60;99.90
8715;DHT22;4394;51.208;8.904;2023-02-21T04:29:47;8.60;99.90
8715;DHT22;4394;51.208;8.904;2023-02-21T04:32:37;8.50;99.90
8715;DHT22;4394;51.208;8.904;2023-02-21T04:35:24;8.50;99.90
8715;DHT22;4394;51.208;8.904;2023-02-21T04:38:12;8.50;99.90
8715;DHT22;4394;51.208;8.904;2023-02-21T04:41:00;8.50;99.90
8715;DHT22;4394;51.208;8.904;2023-02-21T04:43:48;8.50;99.90
8715;DHT22;4394;51.208;8.904;2023-02-21T04:46:36;8.50;99.90
8715;DHT22;4394;51.208;8.904;2023-02-21T04:49:25;8.50;99.90
8715;DHT22;4394;51.208;8.904;2023-02-21T04:52:13;8.50;99.90
8715;DHT22;4394;51.208;8.904;2023-02-21T04:55:01;8.50;99.90
8715;DHT22;4394;51.208;8.904;2023-02-21T04:57:49;8.40;99.90
8715;DHT22;4394;51.208;8.904;2023-02-21T05:00:37;8.40;99.90
8715;DHT22;4394;51.208;8.904;2023-02-21T05:03:24;8.40;99.90
8715;DHT22;4394;51.208;8.904;2023-02-21T05:06:18;8.40;99.90
8715;DHT22;4394;51.208;8.904;2023-02-21T05:09:06;8.40;99.90
8715;DHT22;4394;51.208;8.904;2023-02-21T05:11:54;8.50;99.90
8715;DHT22;4394;51.208;8.904;2023-02-21T05:14:41;8.50;99.90
8715;DHT22;4394;51.208;8.904;2023-02-21T05:17:29;8.50;99.90
8715;DHT22;4394;51.208;8.904;2023-02-21T05:20:18;8.50;99.90
8715;DHT22;4394;51.208;8.904;2023-02-21T05:23:07;8.50;99.90
8715;DHT22;4394;51.208;8.904;2023-02-21T05:26:00;8.40;99.90
8715;DHT22;4394;51.208;8.904;2023-02-21T05:28:48;8.40;99.90
8715;DHT22;4394;51.208;8.904;2023-02-21T05:31:36;8.50;99.90
8715;DHT22;4394;51.208;8.904;2023-02-21T05:34:24;8.40;99.90
8715;DHT22;4394;51.208;8.904;2023-02-21T05:37:12;8.50;99.90
8715;DHT22;4394;51.208;8.904;2023-02-21T05:40:02;8.50;99.90
8715;DHT22;4394;51.208;8.904;2023-02-21T05:42:51;8.60;99.90
8715;DHT22;4394;51.208;8.904;2023-02-21T05:45:39;8.50;99.90
8715;DHT22;4394;51.208;8.904;2023-02-21T05:48:27;8.50;99.90
8715;DHT22;4394;51.208;8.904;2023-02-21T05:51:16;8.50;99.90
8715;DHT22;4394;51.208;8.904;2023-02-21T05:54:04;8.50;99.90
8715;DHT22;4394;51.208;8.904;2023-02-21T05:56:54;8.60;99.90
8715;DHT22;4394;51.208;8.904;2023-02-21T05:59:42;8.60;99.90
8715;DHT22;4394;51.208;8.904;2023-02-21T06:02:30;8.60;99.90
8715;DHT22;4394;51.208;8.904;2023-02-21T06:05:18;8.60;99.90
8715;DHT22;4394;51.208;8.904;2023-02-21T06:08:06;8.70;99.90
8715;DHT22;4394;51.208;8.904;2023-02-21T06:10:58;8.60;99.90
8715;DHT22;4394;51.208;8.904;2023-02-21T06:13:49;8.60;99.90
8715;DHT22;4394;51.208;8.904;2023-02-21T06:16:37;8.60;99.90
8715;DHT22;4394;51.208;8.904;2023-02-21T06:19:26;8.60;99.90
8715;DHT22;4394;51.208;8.904;2023-02-21T06:22:13;8.60;99.90
8715;DHT22;4394;51.208;8.904;2023-02-21T06:25:01;8.60;99.90
8715;DHT22;4394;51.208;8.904;2023-02-21T06:27:49;8.60;99.90
8715;DHT22;4394;51.208;8.904;2023-02-21T06:30:38;8.60;99.90
8715;DHT22;4394;51.208;8.904;2023-02-21T06:33:26;8.60;99.90
8715;DHT22;4394;51.208;8.904;2023-02-21T06:36:16;8.70;99.90
8715;DHT22;4394;51.208;8.904;2023-02-21T06:39:05;8.70;99.90
8715;DHT22;4394;51.208;8.904;2023-02-21T06:41:53;8.70;99.90
8715;DHT22;4394;51.208;8.904;2023-02-21T06:44:42;8.60;99.90
8715;DHT22;4394;51.208;8.904;2023-02-21T06:47:31;8.70;99.90
8715;DHT22;4394;51.208;8.904;2023-02-21T06:50:19;8.70;99.90
8715;DHT22;4394;51.208;8.904;2023-02-21T06:53:07;8.70;99.90
8715;DHT22;4394;51.208;8.904;2023-02-21T06:55:55;8.70;99.90
8715;DHT22;4394;51.208;8.904;2023-02-21T06:58:43;8.70;99.90
8715;DHT22;4394;51.208;8.904;2023-02-21T07:01:31;8.70;99.90
8715;DHT22;4394;51.208;8.904;2023-02-21T07:04:22;8.70;99.90
8715;DHT22;4394;51.208;8.904;2023-02-21T07:07:10;8.70;99.90
8715;DHT22;4394;51.208;8.904;2023-02-21T07:09:58;8.80;99.90
8715;DHT22;4394;51.208;8.904;2023-02-21T07:12:45;8.70;99.90
8715;DHT22;4394;51.208;8.904;2023-02-21T07:15:33;8.80;99.90
8715;DHT22;4394;51.208;8.904;2023-02-21T07:18:21;8.80;99.90
8715;DHT22;4394;51.208;8.904;2023-02-21T07:21:11;9.10;99.90
8715;DHT22;4394;51.208;8.904;2023-02-21T07:23:59;9.00;99.90
8715;DHT22;4394;51.208;8.904;2023-02-21T07:26:51;8.90;99.90
8715;DHT22;4394;51.208;8.904;2023-02-21T07:29:39;8.90;99.90
8715;DHT22;4394;51.208;8.904;2023-02-21T07:32:27;8.90;99.90
8715;DHT22;4394;51.208;8.904;2023-02-21T07:35:15;8.90;99.90
8715;DHT22;4394;51.208;8.904;2023-02-21T07:38:04;8.90;99.90
8715;DHT22;4394;51.208;8.904;2023-02-21T07:40:53;8.90;99.90
8715;DHT22;4394;51.208;8.904;2023-02-21T07:43:42;9.00;99.90
8715;DHT22;4394;51.208;8.904;2023-02-21T07:46:30;9.00;99.90
8715;DHT22;4394;51.208;8.904;2023-02-21T07:49:18;8.90;99.90
8715;DHT22;4394;51.208;8.904;2023-02-21T07:52:06;9.00;99.90
8715;DHT22;4394;51.208;8.904;2023-02-21T07:54:55;9.10;99.90
8715;DHT22;4394;51.208;8.904;2023-02-21T07:57:44;9.10;99.90
8715;DHT22;4394;51.208;8.904;2023-02-21T08:00:32;9.10;99.90
8715;DHT22;4394;51.208;8.904;2023-02-21T08:03:20;9.20;99.90
8715;DHT22;4394;51.208;8.904;2023-02-21T08:06:09;9.20;99.90
8715;DHT22;4394;51.208;8.904;2023-02-21T08:08:57;9.20;99.90
8715;DHT22;4394;51.208;8.904;2023-02-21T08:11:46;9.20;99.90
8715;DHT22;4394;51.208;8.904;2023-02-21T08:14:34;9.30;99.90
8715;DHT22;4394;51.208;8.904;2023-02-21T08:17:22;9.30;99.90
8715;DHT22;4394;51.208;8.904;2023-02-21T08:20:10;9.30;99.90
8715;DHT22;4394;51.208;8.904;2023-02-21T08:22:58;9.10;99.90
8715;DHT22;4394;51.208;8.904;2023-02-21T08:25:46;9.30;99.90
8715;DHT22;4394;51.208;8.904;2023-02-21T08:28:35;9.30;99.90
8715;DHT22;4394;51.208;8.904;2023-02-21T08:31:23;9.30;99.90
8715;DHT22;4394;51.208;8.904;2023-02-21T08:34:13;9.30;99.90
8715;DHT22;4394;51.208;8.904;2023-02-21T08:37:01;9.30;99.90
8715;DHT22;4394;51.208;8.904;2023-02-21T08:39:51;9.40;99.90
8715;DHT22;4394;51.208;8.904;2023-02-21T08:42:39;9.40;99.90
8715;DHT22;4394;51.208;8.904;2023-02-21T08:45:29;9.40;99.90
8715;DHT22;4394;51.208;8.904;2023-02-21T08:48:17;9.40;99.90
8715;DHT22;4394;51.208;8.904;2023-02-21T08:51:05;9.50;99.90
8715;DHT22;4394;51.208;8.904;2023-02-21T08:53:53;9.60;99.90
8715;DHT22;4394;51.208;8.904;2023-02-21T08:56:41;9.60;99.90
8715;DHT22;4394;51.208;8.904;2023-02-21T08:59:29;9.60;99.90
8715;DHT22;4394;51.208;8.904;2023-02-21T09:02:23;9.70;99.90
8715;DHT22;4394;51.208;8.904;2023-02-21T09:05:14;9.70;99.90
8715;DHT22;4394;51.208;8.904;2023-02-21T09:08:02;9.70;99.90
8715;DHT22;4394;51.208;8.904;2023-02-21T09:10:50;9.80;99.90
8715;DHT22;4394;51.208;8.904;2023-02-21T09:13:38;9.90;99.90
8715;DHT22;4394;51.208;8.904;2023-02-21T09:16:27;9.90;99.90
8715;DHT22;4394;51.208;8.904;2023-02-21T09:19:16;9.90;99.90
8715;DHT22;4394;51.208;8.904;2023-02-21T09:22:06;10.00;99.90
8715;DHT22;4394;51.208;8.904;2023-02-21T09:24:53;10.10;99.90
8715;DHT22;4394;51.208;8.904;2023-02-21T09:27:41;10.10;99.90
8715;DHT22;4394;51.208;8.904;2023-02-21T09:30:29;10.20;99.90
8715;DHT22;4394;51.208;8.904;2023-02-21T09:33:17;10.20;99.90
8715;DHT22;4394;51.208;8.904;2023-02-21T09:36:07;10.30;99.90
8715;DHT22;4394;51.208;8.904;2023-02-21T09:38:55;10.40;99.90
8715;DHT22;4394;51.208;8.904;2023-02-21T09:41:46;10.50;99.90
8715;DHT22;4394;51.208;8.904;2023-02-21T09:44:34;10.50;99.90
8715;DHT22;4394;51.208;8.904;2023-02-21T09:47:26;10.60;99.90
8715;DHT22;4394;51.208;8.904;2023-02-21T09:50:18;10.60;99.90
8715;DHT22;4394;51.208;8.904;2023-02-21T09:53:10;10.70;99.90
8715;DHT22;4394;51.208;8.904;2023-02-21T09:56:04;10.80;99.90
8715;DHT22;4394;51.208;8.904;2023-02-21T09:58:53;10.90;99.90
8715;DHT22;4394;51.208;8.904;2023-02-21T10:01:53;11.00;99.90
8715;DHT22;4394;51.208;8.904;2023-02-21T10:04:54;11.10;99.90
8715;DHT22;4394;51.208;8.904;2023-02-21T10:07:48;11.10;99.90
8715;DHT22;4394;51.208;8.904;2023-02-21T10:10:44;11.20;99.90
8715;DHT22;4394;51.208;8.904;2023-02-21T10:13:37;11.30;99.90
8715;DHT22;4394;51.208;8.904;2023-02-21T10:16:28;11.40;99.90
8715;DHT22;4394;51.208;8.904;2023-02-21T10:19:24;11.50;99.90
8715;DHT22;4394;51.208;8.904;2023-02-21T10:22:19;11.50;99.90
8715;DHT22;4394;51.208;8.904;2023-02-21T10:25:20;11.50;99.90
8715;DHT22;4394;51.208;8.904;2023-02-21T10:28:16;11.50;99.90
8715;DHT22;4394;51.208;8.904;2023-02-21T10:31:07;11.60;99.90
8715;DHT22;4394;51.208;8.904;2023-02-21T10:33:56;11.60;99.90
8715;DHT22;4394;51.208;8.904;2023-02-21T10:36:46;11.70;99.90
8715;DHT22;4394;51.208;8.904;2023-02-21T10:39:39;11.80;99.90
8715;DHT22;4394;51.208;8.904;2023-02-21T10:42:37;11.80;99.90
8715;DHT22;4394;51.208;8.904;2023-02-21T10:45:35;11.90;99.90
8715;DHT22;4394;51.208;8.904;2023-02-21T10:48:26;11.90;99.90
8715;DHT22;4394;51.208;8.904;2023-02-21T10:51:15;11.90;99.90
8715;DHT22;4394;51.208;8.904;2023-02-21T10:54:19;11.90;99.90
8715;DHT22;4394;51.208;8.904;2023-02-21T10:57:09;12.00;99.90
8715;DHT22;4394;51.208;8.904;2023-02-21T11:00:01;12.00;99.90
8715;DHT22;4394;51.208;8.904;2023-02-21T11:03:02;12.00;99.90
8715;DHT22;4394;51.208;8.904;2023-02-21T11:05:52;12.00;99.90
8715;DHT22;4394;51.208;8.904;2023-02-21T11:08:42;12.00;99.90
8715;DHT22;4394;51.208;8.904;2023-02-21T11:11:36;12.10;99.90
8715;DHT22;4394;51.208;8.904;2023-02-21T11:14:25;12.10;99.90
8715;DHT22;4394;51.208;8.904;2023-02-21T11:17:16;12.10;99.90
8715;DHT22;4394;51.208;8.904;2023-02-21T11:20:16;12.20;99.90
8715;DHT22;4394;51.208;8.904;2023-02-21T11:23:04;12.20;99.90
8715;DHT22;4394;51.208;8.904;2023-02-21T11:26:06;12.20;99.90
8715;DHT22;4394;51.208;8.904;2023-02-21T11:29:06;12.30;99.90
8715;DHT22;4394;51.208;8.904;2023-02-21T11:31:54;12.30;99.90
8715;DHT22;4394;51.208;8.904;2023-02-21T11:34:42;12.40;99.90
8715;DHT22;4394;51.208;8.904;2023-02-21T11:37:46;12.50;99.90
8715;DHT22;4394;51.208;8.904;2023-02-21T11:40:41;12.60;99.90
8715;DHT22;4394;51.208;8.904;2023-02-21T11:43:30;12.60;99.90
8715;DHT22;4394;51.208;8.904;2023-02-21T11:46:29;12.60;99.90
8715;DHT22;4394;51.208;8.904;2023-02-21T11:49:24;12.60;99.90
8715;DHT22;4394;51.208;8.904;2023-02-21T11:52:19;12.50;99.90
8715;DHT22;4394;51.208;8.904;2023-02-21T11:55:14;12.50;99.90
8715;DHT22;4394;51.208;8.904;2023-02-21T11:58:11;12.60;99.90
8715;DHT22;4394;51.208;8.904;2023-02-21T12:01:05;12.60;99.90
8715;DHT22;4394;51.208;8.904;2023-02-21T12:04:07;12.60;99.90
8715;DHT22;4394;51.208;8.904;2023-02-21T12:07:05;12.70;99.90
8715;DHT22;4394;51.208;8.904;2023-02-21T12:10:02;12.70;99.90
8715;DHT22;4394;51.208;8.904;2023-02-21T12:13:01;12.70;99.90
8715;DHT22;4394;51.208;8.904;2023-02-21T12:15:55;12.70;99.90
8715;DHT22;4394;51.208;8.904;2023-02-21T12:18:56;12.70;99.90
8715;DHT22;4394;51.208;8.904;2023-02-21T12:21:59;12.70;99.90
8715;DHT22;4394;51.208;8.904;2023-02-21T12:24:57;12.70;99.90
8715;DHT22;4394;51.208;8.904;2023-02-21T12:27:51;12.70;99.90
8715;DHT22;4394;51.208;8.904;2023-02-21T12:31:06;12.70;99.90
8715;DHT22;4394;51.208;8.904;2023-02-21T12:34:06;12.80;99.90
8715;DHT22;4394;51.208;8.904;2023-02-21T12:37:08;12.80;99.90
8715;DHT22;4394;51.208;8.904;2023-02-21T12:40:13;12.80;99.90
8715;DHT22;4394;51.208;8.904;2023-02-21T12:43:11;12.90;99.90
8715;DHT22;4394;51.208;8.904;2023-02-21T12:46:11;12.90;99.90
8715;DHT22;4394;51.208;8.904;2023-02-21T12:49:04;12.90;99.90
8715;DHT22;4394;51.208;8.904;2023-02-21T12:51:58;12.90;99.90
8715;DHT22;4394;51.208;8.904;2023-02-21T12:54:52;13.00;99.90
8715;DHT22;4394;51.208;8.904;2023-02-21T12:57:47;13.00;99.90
8715;DHT22;4394;51.208;8.904;2023-02-21T13:00:40;13.00;99.90
8715;DHT22;4394;51.208;8.904;2023-02-21T13:03:39;13.00;99.90
8715;DHT22;4394;51.208;8.904;2023-02-21T13:06:31;13.00;99.90
8715;DHT22;4394;51.208;8.904;2023-02-21T13:09:27;12.90;99.90
8715;DHT22;4394;51.208;8.904;2023-02-21T13:12:22;12.90;99.90
8715;DHT22;4394;51.208;8.904;2023-02-21T13:15:17;12.90;99.90
8715;DHT22;4394;51.208;8.904;2023-02-21T13:18:08;13.00;99.90
8715;DHT22;4394;51.208;8.904;2023-02-21T13:21:04;13.10;99.90
8715;DHT22;4394;51.208;8.904;2023-02-21T13:23:58;13.00;99.90
8715;DHT22;4394;51.208;8.904;2023-02-21T13:26:57;13.00;99.90
8715;DHT22;4394;51.208;8.904;2023-02-21T13:29:48;13.00;99.90
8715;DHT22;4394;51.208;8.904;2023-02-21T13:32:37;13.00;99.90
8715;DHT22;4394;51.208;8.904;2023-02-21T13:35:30;13.00;99.90
8715;DHT22;4394;51.208;8.904;2023-02-21T13:38:20;13.00;99.90
8715;DHT22;4394;51.208;8.904;2023-02-21T13:41:10;13.00;99.90
8715;DHT22;4394;51.208;8.904;2023-02-21T13:44:05;12.90;99.90
8715;DHT22;4394;51.208;8.904;2023-02-21T13:47:13;12.90;99.90
8715;DHT22;4394;51.208;8.904;2023-02-21T13:50:43;13.00;99.90
8715;DHT22;4394;51.208;8.904;2023-02-21T13:53:34;12.90;99.90
8715;DHT22;4394;51.208;8.904;2023-02-21T13:56:41;12.90;99.90
8715;DHT22;4394;51.208;8.904;2023-02-21T13:59:34;12.90;99.90
8715;DHT22;4394;51.208;8.904;2023-02-21T14:02:27;12.90;99.90
8715;DHT22;4394;51.208;8.904;2023-02-21T14:05:18;13.00;99.90
8715;DHT22;4394;51.208;8.904;2023-02-21T14:08:11;13.00;99.90
8715;DHT22;4394;51.208;8.904;2023-02-21T14:11:10;13.10;99.90
8715;DHT22;4394;51.208;8.904;2023-02-21T14:14:02;13.10;99.90
8715;DHT22;4394;51.208;8.904;2023-02-21T14:16:56;13.10;99.90
8715;DHT22;4394;51.208;8.904;2023-02-21T14:19:48;13.10;99.90
8715;DHT22;4394;51.208;8.904;2023-02-21T14:22:37;13.10;99.90
8715;DHT22;4394;51.208;8.904;2023-02-21T14:25:27;13.10;99.90
8715;DHT22;4394;51.208;8.904;2023-02-21T14:28:49;13.00;99.90
8715;DHT22;4394;51.208;8.904;2023-02-21T14:31:49;13.10;99.90
8715;DHT22;4394;51.208;8.904;2023-02-21T14:34:41;13.00;99.90
8715;DHT22;4394;51.208;8.904;2023-02-21T14:37:37;13.00;99.90
8715;DHT22;4394;51.208;8.904;2023-02-21T14:40:35;13.00;99.90
8715;DHT22;4394;51.208;8.904;2023-02-21T14:43:52;13.10;99.90
8715;DHT22;4394;51.208;8.904;2023-02-21T14:47:08;13.10;99.90
8715;DHT22;4394;51.208;8.904;2023-02-21T14:50:27;13.10;99.90
8715;DHT22;4394;51.208;8.904;2023-02-21T14:53:48;13.20;99.90
8715;DHT22;4394;51.208;8.904;2023-02-21T14:56:54;13.10;99.90
8715;DHT22;4394;51.208;8.904;2023-02-21T14:59:57;13.10;99.90
8715;DHT22;4394;51.208;8.904;2023-02-21T15:02:52;13.00;99.90
8715;DHT22;4394;51.208;8.904;2023-02-21T15:05:44;13.00;99.90
8715;DHT22;4394;51.208;8.904;2023-02-21T15:08:42;13.00;99.90
8715;DHT22;4394;51.208;8.904;2023-02-21T15:11:32;12.90;99.90
8715;DHT22;4394;51.208;8.904;2023-02-21T15:14:26;12.90;99.90
8715;DHT22;4394;51.208;8.904;2023-02-21T15:17:18;12.90;99.90
8715;DHT22;4394;51.208;8.904;2023-02-21T15:20:14;12.80;99.90
8715;DHT22;4394;51.208;8.904;2023-02-21T15:23:11;12.80;99.90
8715;DHT22;4394;51.208;8.904;2023-02-21T15:26:08;12.80;99.90
8715;DHT22;4394;51.208;8.904;2023-02-21T15:29:06;12.80;99.90
8715;DHT22;4394;51.208;8.904;2023-02-21T15:31:56;12.70;99.90
8715;DHT22;4394;51.208;8.904;2023-02-21T15:34:46;12.70;99.90
8715;DHT22;4394;51.208;8.904;2023-02-21T15:37:37;12.80;99.90
8715;DHT22;4394;51.208;8.904;2023-02-21T15:40:27;12.70;99.90
8715;DHT22;4394;51.208;8.904;2023-02-21T15:43:23;12.70;99.90
8715;DHT22;4394;51.208;8.904;2023-02-21T15:46:15;12.70;99.90
8715;DHT22;4394;51.208;8.904;2023-02-21T15:49:06;12.70;99.90
8715;DHT22;4394;51.208;8.904;2023-02-21T15:51:56;12.60;99.90
8715;DHT22;4394;51.208;8.904;2023-02-21T15:54:44;12.60;99.90
8715;DHT22;4394;51.208;8.904;2023-02-21T15:57:32;12.60;99.90
8715;DHT22;4394;51.208;8.904;2023-02-21T16:00:24;12.50;99.90
8715;DHT22;4394;51.208;8.904;2023-02-21T16:03:34;12.50;99.90
8715;DHT22;4394;51.208;8.904;2023-02-21T16:06:24;12.50;99.90
8715;DHT22;4394;51.208;8.904;2023-02-21T16:09:24;12.40;99.90
8715;DHT22;4394;51.208;8.904;2023-02-21T16:12:29;12.40;99.90
8715;DHT22;4394;51.208;8.904;2023-02-21T16:15:22;12.40;99.90
8715;DHT22;4394;51.208;8.904;2023-02-21T16:18:16;12.40;99.90
8715;DHT22;4394;51.208;8.904;2023-02-21T16:21:06;12.40;99.90
8715;DHT22;4394;51.208;8.904;2023-02-21T16:23:56;12.30;99.90
8715;DHT22;4394;51.208;8.904;2023-02-21T16:27:02;12.30;99.90
8715;DHT22;4394;51.208;8.904;2023-02-21T16:29:50;12.30;99.90
8715;DHT22;4394;51.208;8.904;2023-02-21T16:32:40;12.20;99.90
8715;DHT22;4394;51.208;8.904;2023-02-21T16:35:29;12.20;99.90
8715;DHT22;4394;51.208;8.904;2023-02-21T16:38:20;12.20;99.90
8715;DHT22;4394;51.208;8.904;2023-02-21T16:41:12;12.20;99.90
8715;DHT22;4394;51.208;8.904;2023-02-21T16:44:02;12.10;99.90
8715;DHT22;4394;51.208;8.904;2023-02-21T16:46:50;12.10;99.90
8715;DHT22;4394;51.208;8.904;2023-02-21T16:49:38;12.10;99.90
8715;DHT22;4394;51.208;8.904;2023-02-21T16:52:26;12.10;99.90
8715;DHT22;4394;51.208;8.904;2023-02-21T16:55:16;12.10;99.90
8715;DHT22;4394;51.208;8.904;2023-02-21T16:58:06;12.10;99.90
8715;DHT22;4394;51.208;8.904;2023-02-21T17:00:56;12.00;99.90
8715;DHT22;4394;51.208;8.904;2023-02-21T17:03:44;12.00;99.90
8715;DHT22;4394;51.208;8.904;2023-02-21T17:06:33;12.00;99.90
8715;DHT22;4394;51.208;8.904;2023-02-21T17:09:24;12.00;99.90
8715;DHT22;4394;51.208;8.904;2023-02-21T17:12:12;11.90;99.90
8715;DHT22;4394;51.208;8.904;2023-02-21T17:15:01;11.90;99.90
8715;DHT22;4394;51.208;8.904;2023-02-21T17:17:50;11.90;99.90
8715;DHT22;4394;51.208;8.904;2023-02-21T17:20:39;11.90;99.90
8715;DHT22;4394;51.208;8.904;2023-02-21T17:23:27;11.90;99.90
8715;DHT22;4394;51.208;8.904;2023-02-21T17:26:16;11.90;99.90
8715;DHT22;4394;51.208;8.904;2023-02-21T17:29:04;11.80;99.90
8715;DHT22;4394;51.208;8.904;2023-02-21T17:31:54;11.80;99.90
8715;DHT22;4394;51.208;8.904;2023-02-21T17:34:42;11.80;99.90
8715;DHT22;4394;51.208;8.904;2023-02-21T17:37:30;11.80;99.90
8715;DHT22;4394;51.208;8.904;2023-02-21T17:40:19;11.70;99.90
8715;DHT22;4394;51.208;8.904;2023-02-21T17:43:07;11.70;99.90
8715;DHT22;4394;51.208;8.904;2023-02-21T17:45:55;11.70;99.90
8715;DHT22;4394;51.208;8.904;2023-02-21T17:48:44;11.70;99.90
8715;DHT22;4394;51.208;8.904;2023-02-21T17:51:32;11.70;99.90
8715;DHT22;4394;51.208;8.904;2023-02-21T17:54:22;11.70;99.90
8715;DHT22;4394;51.208;8.904;2023-02-21T17:57:10;11.70;99.90
8715;DHT22;4394;51.208;8.904;2023-02-21T17:59:58;11.70;99.90
8715;DHT22;4394;51.208;8.904;2023-02-21T18:02:47;11.70;99.90
8715;DHT22;4394;51.208;8.904;2023-02-21T18:05:37;11.70;99.90
8715;DHT22;4394;51.208;8.904;2023-02-21T18:08:25;11.70;99.90
8715;DHT22;4394;51.208;8.904;2023-02-21T18:11:14;11.60;99.90
8715;DHT22;4394;51.208;8.904;2023-02-21T18:14:04;11.60;99.90
8715;DHT22;4394;51.208;8.904;2023-02-21T18:16:52;11.60;99.90
8715;DHT22;4394;51.208;8.904;2023-02-21T18:19:42;11.60;99.90
8715;DHT22;4394;51.208;8.904;2023-02-21T18:22:31;11.60;99.90
8715;DHT22;4394;51.208;8.904;2023-02-21T18:25:19;11.50;99.90
8715;DHT22;4394;51.208;8.904;2023-02-21T18:28:09;11.50;99.90
8715;DHT22;4394;51.208;8.904;2023-02-21T18:30:57;11.50;99.90
8715;DHT22;4394;51.208;8.904;2023-02-21T18:33:45;11.50;99.90
8715;DHT22;4394;51.208;8.904;2023-02-21T18:36:33;11.50;99.90
8715;DHT22;4394;51.208;8.904;2023-02-21T18:39:23;11.50;99.90
8715;DHT22;4394;51.208;8.904;2023-02-21T18:42:11;11.50;99.90
8715;DHT22;4394;51.208;8.904;2023-02-21T18:44:59;11.50;99.90
8715;DHT22;4394;51.208;8.904;2023-02-21T18:47:47;11.50;99.90
8715;DHT22;4394;51.208;8.904;2023-02-21T18:50:35;11.30;99.90
8715;DHT22;4394;51.208;8.904;2023-02-21T18:53:23;11.40;99.90
8715;DHT22;4394;51.208;8.904;2023-02-21T18:56:14;11.40;99.90
8715;DHT22;4394;51.208;8.904;2023-02-21T18:59:04;11.40;99.90
8715;DHT22;4394;51.208;8.904;2023-02-21T19:01:53;11.40;99.90
8715;DHT22;4394;51.208;8.904;2023-02-21T19:04:41;11.40;99.90